METAR Data
IDs: Format: Raw Decoded Include TAF

Data at: 1351 UTC 14 Dec 2019

PAFS 141301Z AUTO 07010KT 10SM CLR M08/M10 A2957 RMK AO2 SLP028 T10831100 FZRANO
PAFS 141201Z AUTO 07011KT 10SM FEW090 M10/M11 A2958 RMK AO2 SLP029 T11001106 11100 21194 58006 FZRANO
PAFS 141101Z AUTO 07003KT 10SM SCT100 M14/M15 A2958 RMK AO2 SLP030 T11391150 FZRANO
PAFS 141001Z AUTO 05004KT 10SM CLR M19/M21 A2959 RMK AO2 SLP034 T11891206 FZRANO
PAFS 140901Z AUTO 00000KT 10SM CLR M18/M20 A2959 RMK AO2 SLP036 T11831200 411831183 51002 FZRANO
PAFS 140801Z AUTO 00000KT 4SM BR CLR M18/M20 A2959 RMK AO2 SLP037 T11831200 FZRANO
PAFS 140701Z AUTO 00000KT 4SM BR CLR M18/M19 A2959 RMK AO2 SLP036 T11781189 FZRANO
PAFS 140601Z AUTO 24003KT 7SM CLR M16/M18 A2959 RMK AO2 SLP035 T11611178 11117 21161 51013 FZRANO
PAFS 140501Z AUTO 00000KT 10SM CLR M16/M17 A2959 RMK AO2 SLP034 T11561172 FZRANO
PAFS 140401Z AUTO 00000KT 8SM CLR M14/M16 A2958 RMK AO2 SLP030 T11391156 FZRANO
PAFS 140301Z AUTO 00000KT 10SM OVC100 M13/M14 A2957 RMK AO2 SLP026 T11281144 51012 FZRANO
PAFS 140201Z AUTO VRB03KT 10SM CLR M13/M14 A2955 RMK AO2 SLP020 T11331144 FZRANO
PAFS 140101Z AUTO 00000KT 10SM CLR M13/M14 A2954 RMK AO2 SLP018 T11281144 FZRANO
PAFS 140001Z AUTO 00000KT 9SM CLR M12/M13 A2953 RMK AO2 SLP014 T11171133 11106 21150 53022 FZRANO
PAFS 132301Z AUTO 00000KT 10SM CLR M11/M13 A2951 RMK AO2 SLP007 T11111128 FZRANO
PAFS 132201Z AUTO 07005KT 10SM CLR M11/M13 A2949 RMK AO2 SLP998 T11111128 FZRANO
PAFS 132101Z AUTO 07004KT 10SM CLR M12/M13 A2947 RMK AO2 SLP991 T11171128 53028 FZRANO
PAFS 132001Z AUTO 06007KT 10SM CLR M14/M15 A2945 RMK AO2 SLP986 T11391150 FZRANO
PAFS 131901Z AUTO 00000KT 9SM CLR M14/M16 A2942 RMK AO2 SLP975 T11441161 FZRANO
PAFS 131801Z AUTO 00000KT 10SM CLR M13/M14 A2940 RMK AO2 SLP967 T11331139 11083 21133 53015 FZRANO
PAFS 131701Z AUTO 00000KT 10SM CLR M12/M14 A2937 RMK AO2 SLP956 T11171139 FZRANO
PAFS 131601Z AUTO 09004KT 10SM CLR M10/M12 A2935 RMK AO2 SLP949 T11001122 FZRANO
PAFS 131501Z AUTO 09004KT 10SM SCT070 OVC095 M08/M11 A2934 RMK AO2 SLP945 T10831106 51011 FZRANO
PAFS 131401Z AUTO 07005KT 10SM BKN080 OVC120 M09/M11 A2932 RMK AO2 SLP941 T10891111 FZRANO
PAFS 131301Z AUTO 08005KT 10SM CLR M09/M11 A2931 RMK AO2 SLP938 T10891111 FZRANO
PAFS 131201Z AUTO 08004KT 10SM BKN100 M08/M11 A2930 RMK AO2 SLP934 T10831106 11067 21083 53002 FZRANO
PAFS 131131Z AUTO 09007KT 10SM FEW017 BKN100 M08/M11 A2929 RMK AO2 FZRANO
PAFS 131101Z AUTO 09008KT 10SM OVC015 M08/M10 A2929 RMK AO2 SLP929 T10781100 FZRANO
PAFS 131001Z AUTO 07005KT 10SM OVC015 M07/M09 A2929 RMK AO2 SLP929 T10721089 FZRANO
PAFS 130901Z AUTO 08006KT 10SM OVC015 M07/M09 A2928 RMK AO2 SLP928 T10721089 410721072 53001 FZRANO
PAFS 130801Z AUTO 07004KT 10SM OVC015 M07/M08 A2928 RMK AO2 SLP929 T10671083 FZRANO
PAFS 130701Z AUTO 09004KT 10SM OVC015 M07/M08 A2928 RMK AO2 SLP927 T10721083 FZRANO
PAFS 130601Z AUTO 11004KT 10SM OVC015 M07/M09 A2928 RMK AO2 SLP926 T10721089 11067 21078 58008 FZRANO
PAFS 130501Z AUTO 05007KT 10SM OVC015 M07/M08 A2928 RMK AO2 SLP928 T10721083 FZRANO
PAFS 130401Z AUTO 07003KT 10SM OVC015 M07/M08 A2930 RMK AO2 SLP932 T10721083 FZRANO
PAFS 130301Z AUTO 07007KT 10SM OVC015 M07/M08 A2930 RMK AO2 SLP933 T10721083 58007 FZRANO
PAFS 130239Z AUTO 07010KT 10SM BKN015 M07/M08 A2930 RMK AO2 FZRANO
PAFS 130201Z AUTO 07010KT 10SM CLR M07/M08 A2931 RMK AO2 SLP935 T10721083 FZRANO